sensor_id;sensor_type;location;lat;lon;timestamp;temperature;humidity
51619;DHT22;38518;53.164;5.430;2023-04-21T00:01:00;8.90;99.90
51619;DHT22;38518;53.164;5.430;2023-04-21T00:03:26;9.00;99.90
51619;DHT22;38518;53.164;5.430;2023-04-21T00:05:55;9.00;99.90
51619;DHT22;38518;53.164;5.430;2023-04-21T00:08:24;9.00;99.90
51619;DHT22;38518;53.164;5.430;2023-04-21T00:10:53;9.00;99.90
51619;DHT22;38518;53.164;5.430;2023-04-21T00:13:19;8.80;99.90
51619;DHT22;38518;53.164;5.430;2023-04-21T00:15:44;9.20;99.90
51619;DHT22;38518;53.164;5.430;2023-04-21T00:18:10;8.90;99.90
51619;DHT22;38518;53.164;5.430;2023-04-21T00:20:38;8.90;99.90
51619;DHT22;38518;53.164;5.430;2023-04-21T00:23:03;8.90;99.90
51619;DHT22;38518;53.164;5.430;2023-04-21T00:25:29;9.00;99.90
51619;DHT22;38518;53.164;5.430;2023-04-21T00:27:55;8.80;99.90
51619;DHT22;38518;53.164;5.430;2023-04-21T00:30:21;8.80;99.90
51619;DHT22;38518;53.164;5.430;2023-04-21T00:32:47;8.80;99.90
51619;DHT22;38518;53.164;5.430;2023-04-21T00:35:12;9.80;99.90
51619;DHT22;38518;53.164;5.430;2023-04-21T00:37:38;9.00;99.90
51619;DHT22;38518;53.164;5.430;2023-04-21T00:40:06;8.90;99.90
51619;DHT22;38518;53.164;5.430;2023-04-21T00:42:32;8.70;99.90
51619;DHT22;38518;53.164;5.430;2023-04-21T00:44:58;8.80;99.90
51619;DHT22;38518;53.164;5.430;2023-04-21T00:47:24;8.90;99.90
51619;DHT22;38518;53.164;5.430;2023-04-21T00:49:50;8.70;99.90
51619;DHT22;38518;53.164;5.430;2023-04-21T00:52:17;8.90;99.90
51619;DHT22;38518;53.164;5.430;2023-04-21T00:54:43;8.90;99.90
51619;DHT22;38518;53.164;5.430;2023-04-21T00:57:12;8.20;99.90
51619;DHT22;38518;53.164;5.430;2023-04-21T00:59:38;8.70;99.90
51619;DHT22;38518;53.164;5.430;2023-04-21T01:02:04;8.80;99.90
51619;DHT22;38518;53.164;5.430;2023-04-21T01:04:30;8.70;99.90
51619;DHT22;38518;53.164;5.430;2023-04-21T01:07:04;8.80;99.90
51619;DHT22;38518;53.164;5.430;2023-04-21T01:09:30;8.70;99.90
51619;DHT22;38518;53.164;5.430;2023-04-21T01:12:01;8.70;99.90
51619;DHT22;38518;53.164;5.430;2023-04-21T01:14:28;9.50;99.90
51619;DHT22;38518;53.164;5.430;2023-04-21T01:16:54;8.80;99.90
51619;DHT22;38518;53.164;5.430;2023-04-21T01:19:19;8.90;99.90
51619;DHT22;38518;53.164;5.430;2023-04-21T01:21:46;8.70;99.90
51619;DHT22;38518;53.164;5.430;2023-04-21T01:24:12;7.50;99.90
51619;DHT22;38518;53.164;5.430;2023-04-21T01:26:38;8.50;99.90
51619;DHT22;38518;53.164;5.430;2023-04-21T01:29:03;8.60;99.90
51619;DHT22;38518;53.164;5.430;2023-04-21T01:31:29;8.50;99.90
51619;DHT22;38518;53.164;5.430;2023-04-21T01:33:55;8.60;99.90
51619;DHT22;38518;53.164;5.430;2023-04-21T01:36:21;8.50;99.90
51619;DHT22;38518;53.164;5.430;2023-04-21T01:38:47;9.00;99.90
51619;DHT22;38518;53.164;5.430;2023-04-21T01:41:12;9.20;99.90
51619;DHT22;38518;53.164;5.430;2023-04-21T01:43:38;8.50;99.90
51619;DHT22;38518;53.164;5.430;2023-04-21T01:46:05;8.40;99.90
51619;DHT22;38518;53.164;5.430;2023-04-21T01:48:30;8.20;99.90
51619;DHT22;38518;53.164;5.430;2023-04-21T01:50:56;8.50;99.90
51619;DHT22;38518;53.164;5.430;2023-04-21T01:53:22;8.40;99.90
51619;DHT22;38518;53.164;5.430;2023-04-21T01:55:48;8.50;99.90
51619;DHT22;38518;53.164;5.430;2023-04-21T01:58:14;8.50;99.90
51619;DHT22;38518;53.164;5.430;2023-04-21T02:00:39;8.40;99.90
51619;DHT22;38518;53.164;5.430;2023-04-21T02:03:05;8.50;99.90
51619;DHT22;38518;53.164;5.430;2023-04-21T02:05:31;8.40;99.90
51619;DHT22;38518;53.164;5.430;2023-04-21T02:07:57;8.30;99.90
51619;DHT22;38518;53.164;5.430;2023-04-21T02:10:23;8.50;99.90
51619;DHT22;38518;53.164;5.430;2023-04-21T02:12:48;8.40;99.90
51619;DHT22;38518;53.164;5.430;2023-04-21T02:15:14;8.90;99.90
51619;DHT22;38518;53.164;5.430;2023-04-21T02:17:40;8.20;99.90
51619;DHT22;38518;53.164;5.430;2023-04-21T02:20:07;8.20;99.90
51619;DHT22;38518;53.164;5.430;2023-04-21T02:22:33;9.10;99.90
51619;DHT22;38518;53.164;5.430;2023-04-21T02:24:59;8.20;99.90
51619;DHT22;38518;53.164;5.430;2023-04-21T02:27:25;8.10;99.90
51619;DHT22;38518;53.164;5.430;2023-04-21T02:29:51;8.10;99.90
51619;DHT22;38518;53.164;5.430;2023-04-21T02:32:16;8.20;99.90
51619;DHT22;38518;53.164;5.430;2023-04-21T02:34:42;8.80;99.90
51619;DHT22;38518;53.164;5.430;2023-04-21T02:37:08;8.10;99.90
51619;DHT22;38518;53.164;5.430;2023-04-21T02:39:34;8.30;99.90
51619;DHT22;38518;53.164;5.430;2023-04-21T02:42:00;8.20;99.90
51619;DHT22;38518;53.164;5.430;2023-04-21T02:44:26;8.30;99.90
51619;DHT22;38518;53.164;5.430;2023-04-21T02:46:52;8.20;99.90
51619;DHT22;38518;53.164;5.430;2023-04-21T02:49:18;8.10;99.90
51619;DHT22;38518;53.164;5.430;2023-04-21T02:51:43;8.30;99.90
51619;DHT22;38518;53.164;5.430;2023-04-21T02:54:09;8.60;99.90
51619;DHT22;38518;53.164;5.430;2023-04-21T02:56:35;8.70;99.90
51619;DHT22;38518;53.164;5.430;2023-04-21T02:59:01;8.30;99.90
51619;DHT22;38518;53.164;5.430;2023-04-21T03:01:27;8.20;99.90
51619;DHT22;38518;53.164;5.430;2023-04-21T03:03:52;8.40;99.90
51619;DHT22;38518;53.164;5.430;2023-04-21T03:06:18;8.20;99.90
51619;DHT22;38518;53.164;5.430;2023-04-21T03:08:44;8.80;99.90
51619;DHT22;38518;53.164;5.430;2023-04-21T03:11:10;8.20;99.90
51619;DHT22;38518;53.164;5.430;2023-04-21T03:13:36;8.10;99.90
51619;DHT22;38518;53.164;5.430;2023-04-21T03:16:01;8.10;99.90
51619;DHT22;38518;53.164;5.430;2023-04-21T03:18:27;8.10;99.90
51619;DHT22;38518;53.164;5.430;2023-04-21T03:20:58;8.10;99.90
51619;DHT22;38518;53.164;5.430;2023-04-21T03:23:24;8.20;99.90
51619;DHT22;38518;53.164;5.430;2023-04-21T03:25:50;8.40;99.90
51619;DHT22;38518;53.164;5.430;2023-04-21T03:28:16;8.00;99.90
51619;DHT22;38518;53.164;5.430;2023-04-21T03:30:42;7.90;99.90
51619;DHT22;38518;53.164;5.430;2023-04-21T03:33:07;8.20;99.90
51619;DHT22;38518;53.164;5.430;2023-04-21T03:35:33;7.90;99.90
51619;DHT22;38518;53.164;5.430;2023-04-21T03:37:59;8.00;99.90
51619;DHT22;38518;53.164;5.430;2023-04-21T03:40:25;7.90;99.90
51619;DHT22;38518;53.164;5.430;2023-04-21T03:42:50;8.10;99.90
51619;DHT22;38518;53.164;5.430;2023-04-21T03:45:16;8.30;99.90
51619;DHT22;38518;53.164;5.430;2023-04-21T03:47:47;8.30;99.90
51619;DHT22;38518;53.164;5.430;2023-04-21T03:50:13;7.90;99.90
51619;DHT22;38518;53.164;5.430;2023-04-21T03:52:39;8.00;99.90
51619;DHT22;38518;53.164;5.430;2023-04-21T03:55:05;7.90;99.90
51619;DHT22;38518;53.164;5.430;2023-04-21T03:57:37;7.90;99.90
51619;DHT22;38518;53.164;5.430;2023-04-21T04:00:04;7.90;99.90
51619;DHT22;38518;53.164;5.430;2023-04-21T04:02:30;8.00;99.90
51619;DHT22;38518;53.164;5.430;2023-04-21T04:04:55;8.00;99.90
51619;DHT22;38518;53.164;5.430;2023-04-21T04:07:21;7.90;99.90
51619;DHT22;38518;53.164;5.430;2023-04-21T04:09:47;8.10;99.90
51619;DHT22;38518;53.164;5.430;2023-04-21T04:12:12;8.10;99.90
51619;DHT22;38518;53.164;5.430;2023-04-21T04:14:38;7.90;99.90
51619;DHT22;38518;53.164;5.430;2023-04-21T04:17:04;8.10;99.90
51619;DHT22;38518;53.164;5.430;2023-04-21T04:19:30;8.40;99.90
51619;DHT22;38518;53.164;5.430;2023-04-21T04:22:00;8.20;99.90
51619;DHT22;38518;53.164;5.430;2023-04-21T04:24:43;8.60;99.90
51619;DHT22;38518;53.164;5.430;2023-04-21T04:27:10;9.20;99.90
51619;DHT22;38518;53.164;5.430;2023-04-21T04:29:38;8.10;99.90
51619;DHT22;38518;53.164;5.430;2023-04-21T04:32:06;8.60;99.90
51619;DHT22;38518;53.164;5.430;2023-04-21T04:34:34;8.20;99.90
51619;DHT22;38518;53.164;5.430;2023-04-21T04:37:02;8.30;99.90
51619;DHT22;38518;53.164;5.430;2023-04-21T04:39:29;8.10;99.90
51619;DHT22;38518;53.164;5.430;2023-04-21T04:41:56;8.10;99.90
51619;DHT22;38518;53.164;5.430;2023-04-21T04:44:22;8.10;99.90
51619;DHT22;38518;53.164;5.430;2023-04-21T04:46:50;9.10;99.90
51619;DHT22;38518;53.164;5.430;2023-04-21T04:49:17;8.00;99.90
51619;DHT22;38518;53.164;5.430;2023-04-21T04:51:42;8.10;99.90
51619;DHT22;38518;53.164;5.430;2023-04-21T04:54:08;10.00;99.90
51619;DHT22;38518;53.164;5.430;2023-04-21T04:56:34;8.20;99.90
51619;DHT22;38518;53.164;5.430;2023-04-21T04:59:00;8.10;99.90
51619;DHT22;38518;53.164;5.430;2023-04-21T05:01:25;8.00;99.90
51619;DHT22;38518;53.164;5.430;2023-04-21T05:03:55;8.00;99.90
51619;DHT22;38518;53.164;5.430;2023-04-21T05:06:22;8.00;99.90
51619;DHT22;38518;53.164;5.430;2023-04-21T05:08:47;7.90;99.90
51619;DHT22;38518;53.164;5.430;2023-04-21T05:11:13;8.10;99.90
51619;DHT22;38518;53.164;5.430;2023-04-21T05:13:39;7.90;99.90
51619;DHT22;38518;53.164;5.430;2023-04-21T05:16:05;7.90;99.90
51619;DHT22;38518;53.164;5.430;2023-04-21T05:18:31;8.00;99.90
51619;DHT22;38518;53.164;5.430;2023-04-21T05:20:57;8.00;99.90
51619;DHT22;38518;53.164;5.430;2023-04-21T05:23:24;8.20;99.90
51619;DHT22;38518;53.164;5.430;2023-04-21T05:25:50;7.70;99.90
51619;DHT22;38518;53.164;5.430;2023-04-21T05:28:16;8.10;99.90
51619;DHT22;38518;53.164;5.430;2023-04-21T05:30:41;8.00;99.90
51619;DHT22;38518;53.164;5.430;2023-04-21T05:33:07;7.60;99.90
51619;DHT22;38518;53.164;5.430;2023-04-21T05:35:34;8.20;99.90
51619;DHT22;38518;53.164;5.430;2023-04-21T05:38:00;8.10;99.90
51619;DHT22;38518;53.164;5.430;2023-04-21T05:40:26;8.60;99.90
51619;DHT22;38518;53.164;5.430;2023-04-21T05:42:52;8.20;99.90
51619;DHT22;38518;53.164;5.430;2023-04-21T05:45:17;8.50;99.90
51619;DHT22;38518;53.164;5.430;2023-04-21T05:47:43;8.30;99.90
51619;DHT22;38518;53.164;5.430;2023-04-21T05:50:09;8.50;99.90
51619;DHT22;38518;53.164;5.430;2023-04-21T05:52:35;8.50;99.90
51619;DHT22;38518;53.164;5.430;2023-04-21T05:55:02;8.70;99.90
51619;DHT22;38518;53.164;5.430;2023-04-21T05:57:28;8.40;99.90
51619;DHT22;38518;53.164;5.430;2023-04-21T05:59:53;9.10;99.90
51619;DHT22;38518;53.164;5.430;2023-04-21T06:02:19;9.30;99.90
51619;DHT22;38518;53.164;5.430;2023-04-21T06:04:45;9.50;98.10
51619;DHT22;38518;53.164;5.430;2023-04-21T06:07:11;9.70;81.30
51619;DHT22;38518;53.164;5.430;2023-04-21T06:09:39;9.70;76.70
51619;DHT22;38518;53.164;5.430;2023-04-21T06:12:05;9.70;68.40
51619;DHT22;38518;53.164;5.430;2023-04-21T06:14:31;9.70;75.90
51619;DHT22;38518;53.164;5.430;2023-04-21T06:16:57;9.80;79.60
51619;DHT22;38518;53.164;5.430;2023-04-21T06:19:22;10.10;64.50
51619;DHT22;38518;53.164;5.430;2023-04-21T06:21:48;10.40;49.70
51619;DHT22;38518;53.164;5.430;2023-04-21T06:24:14;9.20;39.60
51619;DHT22;38518;53.164;5.430;2023-04-21T06:26:40;10.70;27.70
51619;DHT22;38518;53.164;5.430;2023-04-21T06:29:06;10.80;23.70
51619;DHT22;38518;53.164;5.430;2023-04-21T06:31:32;10.90;11.70
51619;DHT22;38518;53.164;5.430;2023-04-21T06:33:57;11.10;14.90
51619;DHT22;38518;53.164;5.430;2023-04-21T06:36:23;11.10;4.80
51619;DHT22;38518;53.164;5.430;2023-04-21T06:38:49;11.00;2.30
51619;DHT22;38518;53.164;5.430;2023-04-21T06:41:15;10.80;5.40
51619;DHT22;38518;53.164;5.430;2023-04-21T06:43:40;10.90;8.50
51619;DHT22;38518;53.164;5.430;2023-04-21T06:46:06;11.10;7.40
51619;DHT22;38518;53.164;5.430;2023-04-21T06:48:32;11.20;1.80
51619;DHT22;38518;53.164;5.430;2023-04-21T06:50:58;11.30;1.00
51619;DHT22;38518;53.164;5.430;2023-04-21T06:53:25;11.50;1.00
51619;DHT22;38518;53.164;5.430;2023-04-21T06:55:51;11.70;1.00
51619;DHT22;38518;53.164;5.430;2023-04-21T06:58:17;11.90;1.00
51619;DHT22;38518;53.164;5.430;2023-04-21T07:00:43;12.10;1.00
51619;DHT22;38518;53.164;5.430;2023-04-21T07:03:09;12.30;1.00
51619;DHT22;38518;53.164;5.430;2023-04-21T07:05:34;12.50;1.00
51619;DHT22;38518;53.164;5.430;2023-04-21T07:08:00;12.70;1.00
51619;DHT22;38518;53.164;5.430;2023-04-21T07:10:27;12.90;1.00
51619;DHT22;38518;53.164;5.430;2023-04-21T07:12:53;13.10;1.00
51619;DHT22;38518;53.164;5.430;2023-04-21T07:15:19;13.20;1.00
51619;DHT22;38518;53.164;5.430;2023-04-21T07:17:45;13.30;1.00
51619;DHT22;38518;53.164;5.430;2023-04-21T07:20:11;13.50;1.00
51619;DHT22;38518;53.164;5.430;2023-04-21T07:22:37;13.70;1.00
51619;DHT22;38518;53.164;5.430;2023-04-21T07:25:03;13.80;1.00
51619;DHT22;38518;53.164;5.430;2023-04-21T07:27:32;14.00;1.00
51619;DHT22;38518;53.164;5.430;2023-04-21T07:29:59;14.20;1.00
51619;DHT22;38518;53.164;5.430;2023-04-21T07:32:25;14.20;1.00
51619;DHT22;38518;53.164;5.430;2023-04-21T07:34:51;14.30;1.00
51619;DHT22;38518;53.164;5.430;2023-04-21T07:37:17;14.10;1.00
51619;DHT22;38518;53.164;5.430;2023-04-21T07:39:43;14.20;1.00
51619;DHT22;38518;53.164;5.430;2023-04-21T07:42:09;14.00;1.00
51619;DHT22;38518;53.164;5.430;2023-04-21T07:44:35;14.00;1.00
51619;DHT22;38518;53.164;5.430;2023-04-21T07:47:01;13.80;1.00
51619;DHT22;38518;53.164;5.430;2023-04-21T07:49:27;13.60;1.00
51619;DHT22;38518;53.164;5.430;2023-04-21T07:51:53;13.30;1.00
51619;DHT22;38518;53.164;5.430;2023-04-21T07:54:18;13.20;1.00
51619;DHT22;38518;53.164;5.430;2023-04-21T07:56:44;13.00;1.00
51619;DHT22;38518;53.164;5.430;2023-04-21T07:59:10;13.20;1.00
51619;DHT22;38518;53.164;5.430;2023-04-21T08:01:36;13.40;1.00
51619;DHT22;38518;53.164;5.430;2023-04-21T08:04:02;13.40;1.00
51619;DHT22;38518;53.164;5.430;2023-04-21T08:06:28;13.60;1.00
51619;DHT22;38518;53.164;5.430;2023-04-21T08:08:53;13.60;1.00
51619;DHT22;38518;53.164;5.430;2023-04-21T08:11:20;13.80;1.00
51619;DHT22;38518;53.164;5.430;2023-04-21T08:13:47;14.00;1.00
51619;DHT22;38518;53.164;5.430;2023-04-21T08:16:13;14.30;1.00
51619;DHT22;38518;53.164;5.430;2023-04-21T08:18:39;14.50;1.00
51619;DHT22;38518;53.164;5.430;2023-04-21T08:21:04;14.70;1.00
51619;DHT22;38518;53.164;5.430;2023-04-21T08:23:30;15.00;1.00
51619;DHT22;38518;53.164;5.430;2023-04-21T08:25:57;15.20;1.00
51619;DHT22;38518;53.164;5.430;2023-04-21T08:28:23;15.40;1.00
51619;DHT22;38518;53.164;5.430;2023-04-21T08:30:49;15.60;1.00
51619;DHT22;38518;53.164;5.430;2023-04-21T08:33:14;15.80;1.00
51619;DHT22;38518;53.164;5.430;2023-04-21T08:35:40;15.90;1.00
51619;DHT22;38518;53.164;5.430;2023-04-21T08:38:07;15.90;1.00
51619;DHT22;38518;53.164;5.430;2023-04-21T08:40:35;15.80;1.00
51619;DHT22;38518;53.164;5.430;2023-04-21T08:43:08;15.70;1.00
51619;DHT22;38518;53.164;5.430;2023-04-21T08:45:46;16.30;1.00
51619;DHT22;38518;53.164;5.430;2023-04-21T08:48:13;15.60;1.00
51619;DHT22;38518;53.164;5.430;2023-04-21T08:50:43;15.50;1.00
51619;DHT22;38518;53.164;5.430;2023-04-21T08:53:12;15.50;1.00
51619;DHT22;38518;53.164;5.430;2023-04-21T08:59:30;15.30;1.00
51619;DHT22;38518;53.164;5.430;2023-04-21T09:02:16;15.50;1.00
51619;DHT22;38518;53.164;5.430;2023-04-21T09:04:45;15.60;1.00
51619;DHT22;38518;53.164;5.430;2023-04-21T09:07:33;15.40;1.00
51619;DHT22;38518;53.164;5.430;2023-04-21T09:09:59;15.50;1.00
51619;DHT22;38518;53.164;5.430;2023-04-21T09:12:25;15.60;1.00
51619;DHT22;38518;53.164;5.430;2023-04-21T09:14:52;15.50;1.00
51619;DHT22;38518;53.164;5.430;2023-04-21T09:17:21;15.70;1.00
51619;DHT22;38518;53.164;5.430;2023-04-21T09:19:47;15.90;1.00
51619;DHT22;38518;53.164;5.430;2023-04-21T09:22:17;16.10;1.00
51619;DHT22;38518;53.164;5.430;2023-04-21T09:24:47;16.30;1.00
51619;DHT22;38518;53.164;5.430;2023-04-21T09:27:16;16.70;1.00
51619;DHT22;38518;53.164;5.430;2023-04-21T09:29:46;17.10;1.00
51619;DHT22;38518;53.164;5.430;2023-04-21T09:32:18;17.50;1.00
51619;DHT22;38518;53.164;5.430;2023-04-21T09:34:45;17.90;1.00
51619;DHT22;38518;53.164;5.430;2023-04-21T09:37:11;18.40;1.00
51619;DHT22;38518;53.164;5.430;2023-04-21T09:39:39;18.70;1.00
51619;DHT22;38518;53.164;5.430;2023-04-21T09:42:09;18.90;1.00
51619;DHT22;38518;53.164;5.430;2023-04-21T09:44:35;19.50;1.00
51619;DHT22;38518;53.164;5.430;2023-04-21T09:47:03;19.60;1.00
51619;DHT22;38518;53.164;5.430;2023-04-21T09:49:30;19.50;1.00
51619;DHT22;38518;53.164;5.430;2023-04-21T09:52:00;19.40;1.00
51619;DHT22;38518;53.164;5.430;2023-04-21T09:54:31;19.40;1.00
51619;DHT22;38518;53.164;5.430;2023-04-21T09:56:59;19.50;1.00
51619;DHT22;38518;53.164;5.430;2023-04-21T09:59:31;18.80;1.00
51619;DHT22;38518;53.164;5.430;2023-04-21T10:01:58;19.30;1.00
51619;DHT22;38518;53.164;5.430;2023-04-21T10:04:25;19.30;1.00
51619;DHT22;38518;53.164;5.430;2023-04-21T10:06:52;18.80;1.00
51619;DHT22;38518;53.164;5.430;2023-04-21T10:09:21;18.80;1.00
51619;DHT22;38518;53.164;5.430;2023-04-21T10:11:47;18.80;1.00
51619;DHT22;38518;53.164;5.430;2023-04-21T10:14:13;18.70;1.00
51619;DHT22;38518;53.164;5.430;2023-04-21T10:16:39;18.60;1.00
51619;DHT22;38518;53.164;5.430;2023-04-21T10:19:25;18.60;1.00
51619;DHT22;38518;53.164;5.430;2023-04-21T10:21:51;18.70;1.00
51619;DHT22;38518;53.164;5.430;2023-04-21T10:24:19;18.80;1.00
51619;DHT22;38518;53.164;5.430;2023-04-21T10:26:45;18.80;1.00
51619;DHT22;38518;53.164;5.430;2023-04-21T10:29:11;18.90;1.00
51619;DHT22;38518;53.164;5.430;2023-04-21T10:39:24;18.70;1.00
51619;DHT22;38518;53.164;5.430;2023-04-21T10:41:50;18.40;1.00
51619;DHT22;38518;53.164;5.430;2023-04-21T10:44:16;18.20;1.00
51619;DHT22;38518;53.164;5.430;2023-04-21T10:46:47;18.10;1.00
51619;DHT22;38518;53.164;5.430;2023-04-21T10:49:27;18.10;1.00
51619;DHT22;38518;53.164;5.430;2023-04-21T10:54:41;18.30;1.00
51619;DHT22;38518;53.164;5.430;2023-04-21T10:57:18;18.80;1.00
51619;DHT22;38518;53.164;5.430;2023-04-21T10:59:45;19.60;1.00
51619;DHT22;38518;53.164;5.430;2023-04-21T11:02:13;20.00;1.00
51619;DHT22;38518;53.164;5.430;2023-04-21T11:04:39;20.00;1.00
51619;DHT22;38518;53.164;5.430;2023-04-21T11:09:45;19.20;1.00
51619;DHT22;38518;53.164;5.430;2023-04-21T11:12:16;18.80;1.00
51619;DHT22;38518;53.164;5.430;2023-04-21T11:14:44;18.50;1.00
51619;DHT22;38518;53.164;5.430;2023-04-21T11:17:14;18.30;1.00
51619;DHT22;38518;53.164;5.430;2023-04-21T11:19:45;18.40;1.00
51619;DHT22;38518;53.164;5.430;2023-04-21T11:22:11;18.50;1.00
51619;DHT22;38518;53.164;5.430;2023-04-21T11:24:37;19.00;1.00
51619;DHT22;38518;53.164;5.430;2023-04-21T11:27:08;19.40;1.00
51619;DHT22;38518;53.164;5.430;2023-04-21T11:29:37;19.60;1.00
51619;DHT22;38518;53.164;5.430;2023-04-21T11:32:05;19.60;1.00
51619;DHT22;38518;53.164;5.430;2023-04-21T11:34:31;19.40;1.00
51619;DHT22;38518;53.164;5.430;2023-04-21T11:36:57;19.30;1.00
51619;DHT22;38518;53.164;5.430;2023-04-21T11:39:23;19.10;1.00
51619;DHT22;38518;53.164;5.430;2023-04-21T11:41:49;18.80;1.00
51619;DHT22;38518;53.164;5.430;2023-04-21T11:44:35;18.60;1.00
51619;DHT22;38518;53.164;5.430;2023-04-21T11:47:18;18.30;1.00
51619;DHT22;38518;53.164;5.430;2023-04-21T11:49:52;18.00;1.00
51619;DHT22;38518;53.164;5.430;2023-04-21T11:52:26;17.90;1.00
51619;DHT22;38518;53.164;5.430;2023-04-21T11:54:59;17.90;1.00
51619;DHT22;38518;53.164;5.430;2023-04-21T11:57:27;18.10;1.00
51619;DHT22;38518;53.164;5.430;2023-04-21T11:59:53;18.30;1.00
51619;DHT22;38518;53.164;5.430;2023-04-21T12:02:27;18.70;1.00
51619;DHT22;38518;53.164;5.430;2023-04-21T12:05:05;18.90;1.00
51619;DHT22;38518;53.164;5.430;2023-04-21T12:07:35;19.20;1.00
51619;DHT22;38518;53.164;5.430;2023-04-21T12:10:07;19.10;1.00
51619;DHT22;38518;53.164;5.430;2023-04-21T12:12:36;19.10;1.00
51619;DHT22;38518;53.164;5.430;2023-04-21T12:15:03;19.00;1.00
51619;DHT22;38518;53.164;5.430;2023-04-21T12:17:56;18.90;1.00
51619;DHT22;38518;53.164;5.430;2023-04-21T12:20:27;18.90;1.00
51619;DHT22;38518;53.164;5.430;2023-04-21T12:22:53;18.80;1.00
51619;DHT22;38518;53.164;5.430;2023-04-21T12:25:22;18.70;1.00
51619;DHT22;38518;53.164;5.430;2023-04-21T12:27:57;18.70;1.00
51619;DHT22;38518;53.164;5.430;2023-04-21T12:30:23;18.70;1.00
51619;DHT22;38518;53.164;5.430;2023-04-21T12:32:50;18.70;1.00
51619;DHT22;38518;53.164;5.430;2023-04-21T12:35:21;18.70;1.00
51619;DHT22;38518;53.164;5.430;2023-04-21T12:37:47;18.90;1.00
51619;DHT22;38518;53.164;5.430;2023-04-21T12:40:13;19.10;1.00
51619;DHT22;38518;53.164;5.430;2023-04-21T12:42:39;19.20;1.00
51619;DHT22;38518;53.164;5.430;2023-04-21T12:45:05;19.40;1.00
51619;DHT22;38518;53.164;5.430;2023-04-21T12:51:31;19.90;1.00
51619;DHT22;38518;53.164;5.430;2023-04-21T12:53:57;20.20;1.00
51619;DHT22;38518;53.164;5.430;2023-04-21T12:56:26;20.00;1.00
51619;DHT22;38518;53.164;5.430;2023-04-21T12:58:52;19.90;1.00
51619;DHT22;38518;53.164;5.430;2023-04-21T13:01:19;19.70;1.00
51619;DHT22;38518;53.164;5.430;2023-04-21T13:03:45;19.40;1.00
51619;DHT22;38518;53.164;5.430;2023-04-21T13:06:11;19.10;1.00
51619;DHT22;38518;53.164;5.430;2023-04-21T13:08:37;18.80;1.00
51619;DHT22;38518;53.164;5.430;2023-04-21T13:11:03;18.60;1.00
51619;DHT22;38518;53.164;5.430;2023-04-21T13:13:29;18.40;1.00
51619;DHT22;38518;53.164;5.430;2023-04-21T13:15:55;18.40;1.00
51619;DHT22;38518;53.164;5.430;2023-04-21T13:18:21;18.30;1.00
51619;DHT22;38518;53.164;5.430;2023-04-21T13:20:47;18.10;1.00
51619;DHT22;38518;53.164;5.430;2023-04-21T13:23:13;18.40;1.00
51619;DHT22;38518;53.164;5.430;2023-04-21T13:25:39;18.80;1.00
51619;DHT22;38518;53.164;5.430;2023-04-21T13:28:06;19.10;1.00
51619;DHT22;38518;53.164;5.430;2023-04-21T13:30:35;18.70;1.00
51619;DHT22;38518;53.164;5.430;2023-04-21T13:33:02;18.30;1.00
51619;DHT22;38518;53.164;5.430;2023-04-21T13:35:27;18.10;1.00
51619;DHT22;38518;53.164;5.430;2023-04-21T13:37:53;18.00;1.00
51619;DHT22;38518;53.164;5.430;2023-04-21T13:40:19;18.00;1.00
51619;DHT22;38518;53.164;5.430;2023-04-21T13:42:45;17.80;1.00
51619;DHT22;38518;53.164;5.430;2023-04-21T13:45:11;17.50;1.00
51619;DHT22;38518;53.164;5.430;2023-04-21T13:47:37;17.30;1.00
51619;DHT22;38518;53.164;5.430;2023-04-21T13:50:03;17.00;1.00
51619;DHT22;38518;53.164;5.430;2023-04-21T13:52:30;16.90;1.00
51619;DHT22;38518;53.164;5.430;2023-04-21T13:54:56;16.90;1.00
51619;DHT22;38518;53.164;5.430;2023-04-21T13:57:23;17.10;1.00
51619;DHT22;38518;53.164;5.430;2023-04-21T13:59:50;17.10;1.00
51619;DHT22;38518;53.164;5.430;2023-04-21T14:02:16;17.20;1.00
51619;DHT22;38518;53.164;5.430;2023-04-21T14:04:42;17.10;1.00
51619;DHT22;38518;53.164;5.430;2023-04-21T14:07:08;17.00;1.00
51619;DHT22;38518;53.164;5.430;2023-04-21T14:09:40;16.90;1.00
51619;DHT22;38518;53.164;5.430;2023-04-21T14:12:06;16.80;1.00
51619;DHT22;38518;53.164;5.430;2023-04-21T14:14:31;16.80;1.00
51619;DHT22;38518;53.164;5.430;2023-04-21T14:16:57;16.80;1.00
51619;DHT22;38518;53.164;5.430;2023-04-21T14:19:23;16.80;1.00
51619;DHT22;38518;53.164;5.430;2023-04-21T14:21:49;16.80;1.00
51619;DHT22;38518;53.164;5.430;2023-04-21T14:24:15;16.80;1.00
51619;DHT22;38518;53.164;5.430;2023-04-21T14:26:40;16.60;1.00
51619;DHT22;38518;53.164;5.430;2023-04-21T14:29:06;16.60;1.00
51619;DHT22;38518;53.164;5.430;2023-04-21T14:31:32;16.50;1.00
51619;DHT22;38518;53.164;5.430;2023-04-21T14:34:01;16.50;1.00
51619;DHT22;38518;53.164;5.430;2023-04-21T14:36:27;16.60;1.00
51619;DHT22;38518;53.164;5.430;2023-04-21T14:38:53;16.50;1.00
51619;DHT22;38518;53.164;5.430;2023-04-21T14:41:19;16.50;1.00
51619;DHT22;38518;53.164;5.430;2023-04-21T14:43:47;16.40;1.00
51619;DHT22;38518;53.164;5.430;2023-04-21T14:46:13;16.30;1.00
51619;DHT22;38518;53.164;5.430;2023-04-21T14:48:39;17.10;1.00
51619;DHT22;38518;53.164;5.430;2023-04-21T14:51:06;16.20;1.00
51619;DHT22;38518;53.164;5.430;2023-04-21T14:53:33;16.40;1.00
51619;DHT22;38518;53.164;5.430;2023-04-21T14:56:00;16.50;1.00
51619;DHT22;38518;53.164;5.430;2023-04-21T14:58:26;16.60;1.00
51619;DHT22;38518;53.164;5.430;2023-04-21T15:00:52;16.50;1.00
51619;DHT22;38518;53.164;5.430;2023-04-21T15:03:18;16.50;1.00
51619;DHT22;38518;53.164;5.430;2023-04-21T15:05:44;16.50;1.00
51619;DHT22;38518;53.164;5.430;2023-04-21T15:08:09;16.50;1.00
51619;DHT22;38518;53.164;5.430;2023-04-21T15:10:38;16.50;1.00
51619;DHT22;38518;53.164;5.430;2023-04-21T15:13:07;16.50;1.00
51619;DHT22;38518;53.164;5.430;2023-04-21T15:15:36;16.40;1.00
51619;DHT22;38518;53.164;5.430;2023-04-21T15:18:05;16.50;1.00
51619;DHT22;38518;53.164;5.430;2023-04-21T15:20:30;16.40;1.00
51619;DHT22;38518;53.164;5.430;2023-04-21T15:23:02;16.40;1.00
51619;DHT22;38518;53.164;5.430;2023-04-21T15:25:42;16.20;1.00
51619;DHT22;38518;53.164;5.430;2023-04-21T15:28:11;16.40;1.00
51619;DHT22;38518;53.164;5.430;2023-04-21T15:30:40;16.30;1.00
51619;DHT22;38518;53.164;5.430;2023-04-21T15:33:05;16.30;1.00
51619;DHT22;38518;53.164;5.430;2023-04-21T15:35:31;16.30;1.00
51619;DHT22;38518;53.164;5.430;2023-04-21T15:41:31;16.30;1.00
51619;DHT22;38518;53.164;5.430;2023-04-21T15:43:57;16.40;1.00
51619;DHT22;38518;53.164;5.430;2023-04-21T15:49:15;16.40;1.00
51619;DHT22;38518;53.164;5.430;2023-04-21T15:55:04;16.10;1.00
51619;DHT22;38518;53.164;5.430;2023-04-21T15:57:54;16.50;1.00
51619;DHT22;38518;53.164;5.430;2023-04-21T16:04:00;16.70;1.00
51619;DHT22;38518;53.164;5.430;2023-04-21T16:06:46;16.70;1.00
51619;DHT22;38518;53.164;5.430;2023-04-21T16:09:49;16.70;1.00
51619;DHT22;38518;53.164;5.430;2023-04-21T16:12:15;16.70;1.00
51619;DHT22;38518;53.164;5.430;2023-04-21T16:14:44;16.70;1.00
51619;DHT22;38518;53.164;5.430;2023-04-21T16:17:16;16.70;1.00
51619;DHT22;38518;53.164;5.430;2023-04-21T16:19:45;16.60;1.00